Eureka, Louisiana
Current Conditions -  °F | °C
As of 11:35 PM on Friday 19 Dec 2014 (Local Time) from KRSN Reporting Station
Haze Haze  
Wind Chill: 42°   Ceiling: 400
Heat Index: 45°   Visibility: 5mi
Dew Point: 45°   Wind: 6mph
Humidity: 100%   Direction: 30°NNE
Pressure: 30.23"   Gusts: NA
Location:  32.6533°N, 92.3683°W
Report Text: KRSN 200535Z AUTO 03005KT 5SM BR OVC004 07/07 A3023 RMK AO2 T00730073
Loading
Personal Weather Stations






























Interactive Weather Map New forecast layout! Learn more

10-Day Weather Forecast

Advertisements
Track Severe Weather on mobile